sensor_id;sensor_type;location;lat;lon;timestamp;temperature;humidity
52016;DHT22;38032;53.326;6.472;2023-09-08T00:02:26;19.20;99.90
52016;DHT22;38032;53.326;6.472;2023-09-08T00:04:52;19.00;99.90
52016;DHT22;38032;53.326;6.472;2023-09-08T00:07:18;19.10;99.90
52016;DHT22;38032;53.326;6.472;2023-09-08T00:09:44;19.00;99.90
52016;DHT22;38032;53.326;6.472;2023-09-08T00:12:10;19.00;99.90
52016;DHT22;38032;53.326;6.472;2023-09-08T00:14:36;18.90;99.90
52016;DHT22;38032;53.326;6.472;2023-09-08T00:17:02;19.00;99.90
52016;DHT22;38032;53.326;6.472;2023-09-08T00:19:28;18.90;99.90
52016;DHT22;38032;53.326;6.472;2023-09-08T00:21:54;18.80;99.90
52016;DHT22;38032;53.326;6.472;2023-09-08T00:24:20;19.00;99.90
52016;DHT22;38032;53.326;6.472;2023-09-08T00:26:45;18.90;99.90
52016;DHT22;38032;53.326;6.472;2023-09-08T00:29:11;18.90;99.90
52016;DHT22;38032;53.326;6.472;2023-09-08T00:34:03;18.80;99.90
52016;DHT22;38032;53.326;6.472;2023-09-08T00:36:29;18.70;99.90
52016;DHT22;38032;53.326;6.472;2023-09-08T00:38:55;18.80;99.90
52016;DHT22;38032;53.326;6.472;2023-09-08T00:41:22;18.70;99.90
52016;DHT22;38032;53.326;6.472;2023-09-08T00:43:50;18.80;99.90
52016;DHT22;38032;53.326;6.472;2023-09-08T00:46:16;18.80;99.90
52016;DHT22;38032;53.326;6.472;2023-09-08T00:48:42;18.60;99.90
52016;DHT22;38032;53.326;6.472;2023-09-08T00:51:09;18.50;99.90
52016;DHT22;38032;53.326;6.472;2023-09-08T00:53:37;18.50;99.90
52016;DHT22;38032;53.326;6.472;2023-09-08T00:56:03;18.50;99.90
52016;DHT22;38032;53.326;6.472;2023-09-08T00:58:30;18.50;99.90
52016;DHT22;38032;53.326;6.472;2023-09-08T01:00:56;18.50;99.90
52016;DHT22;38032;53.326;6.472;2023-09-08T01:03:24;18.50;99.90
52016;DHT22;38032;53.326;6.472;2023-09-08T01:08:17;18.30;99.90
52016;DHT22;38032;53.326;6.472;2023-09-08T01:10:43;18.10;99.90
52016;DHT22;38032;53.326;6.472;2023-09-08T01:13:09;18.20;99.90
52016;DHT22;38032;53.326;6.472;2023-09-08T01:15:35;18.30;99.90
52016;DHT22;38032;53.326;6.472;2023-09-08T01:18:01;18.20;99.90
52016;DHT22;38032;53.326;6.472;2023-09-08T01:20:31;18.10;99.90
52016;DHT22;38032;53.326;6.472;2023-09-08T01:23:11;18.10;99.90
52016;DHT22;38032;53.326;6.472;2023-09-08T01:25:54;18.10;99.90
52016;DHT22;38032;53.326;6.472;2023-09-08T01:28:21;18.10;99.90
52016;DHT22;38032;53.326;6.472;2023-09-08T01:30:49;18.10;99.90
52016;DHT22;38032;53.326;6.472;2023-09-08T01:33:16;18.10;99.90
52016;DHT22;38032;53.326;6.472;2023-09-08T01:35:43;18.00;99.90
52016;DHT22;38032;53.326;6.472;2023-09-08T01:38:09;18.00;99.90
52016;DHT22;38032;53.326;6.472;2023-09-08T01:40:35;18.00;99.90
52016;DHT22;38032;53.326;6.472;2023-09-08T01:43:01;17.90;99.90
52016;DHT22;38032;53.326;6.472;2023-09-08T01:45:27;17.90;99.90
52016;DHT22;38032;53.326;6.472;2023-09-08T01:47:53;17.90;99.90
52016;DHT22;38032;53.326;6.472;2023-09-08T01:50:18;17.90;99.90
52016;DHT22;38032;53.326;6.472;2023-09-08T01:52:51;17.90;99.90
52016;DHT22;38032;53.326;6.472;2023-09-08T01:55:17;17.90;99.90
52016;DHT22;38032;53.326;6.472;2023-09-08T01:57:43;17.90;99.90
52016;DHT22;38032;53.326;6.472;2023-09-08T02:00:11;18.00;99.90
52016;DHT22;38032;53.326;6.472;2023-09-08T02:02:37;17.80;99.90
52016;DHT22;38032;53.326;6.472;2023-09-08T02:05:03;17.80;99.90
52016;DHT22;38032;53.326;6.472;2023-09-08T02:07:29;17.80;99.90
52016;DHT22;38032;53.326;6.472;2023-09-08T02:09:55;17.70;99.90
52016;DHT22;38032;53.326;6.472;2023-09-08T02:12:22;17.70;99.90
52016;DHT22;38032;53.326;6.472;2023-09-08T02:14:48;17.70;99.90
52016;DHT22;38032;53.326;6.472;2023-09-08T02:17:14;17.80;99.90
52016;DHT22;38032;53.326;6.472;2023-09-08T02:19:40;17.30;99.90
52016;DHT22;38032;53.326;6.472;2023-09-08T02:22:06;17.60;99.90
52016;DHT22;38032;53.326;6.472;2023-09-08T02:24:31;17.50;99.90
52016;DHT22;38032;53.326;6.472;2023-09-08T02:26:57;17.50;99.90
52016;DHT22;38032;53.326;6.472;2023-09-08T02:29:23;17.50;99.90
52016;DHT22;38032;53.326;6.472;2023-09-08T02:31:49;17.50;99.90
52016;DHT22;38032;53.326;6.472;2023-09-08T02:34:15;17.40;99.90
52016;DHT22;38032;53.326;6.472;2023-09-08T02:36:42;17.50;99.90
52016;DHT22;38032;53.326;6.472;2023-09-08T02:39:07;17.30;99.90
52016;DHT22;38032;53.326;6.472;2023-09-08T02:41:33;17.40;99.90
52016;DHT22;38032;53.326;6.472;2023-09-08T02:44:00;17.40;99.90
52016;DHT22;38032;53.326;6.472;2023-09-08T02:46:25;17.30;99.90
52016;DHT22;38032;53.326;6.472;2023-09-08T02:48:51;17.30;99.90
52016;DHT22;38032;53.326;6.472;2023-09-08T02:51:18;17.40;99.90
52016;DHT22;38032;53.326;6.472;2023-09-08T02:56:10;17.20;99.90
52016;DHT22;38032;53.326;6.472;2023-09-08T03:03:37;17.30;99.90
52016;DHT22;38032;53.326;6.472;2023-09-08T03:10:57;17.10;99.90
52016;DHT22;38032;53.326;6.472;2023-09-08T03:13:24;17.40;99.90
52016;DHT22;38032;53.326;6.472;2023-09-08T03:15:52;17.20;99.90
52016;DHT22;38032;53.326;6.472;2023-09-08T03:18:18;17.20;99.90
52016;DHT22;38032;53.326;6.472;2023-09-08T03:20:48;17.00;99.90
52016;DHT22;38032;53.326;6.472;2023-09-08T03:23:15;17.20;99.90
52016;DHT22;38032;53.326;6.472;2023-09-08T03:30:33;17.10;99.90
52016;DHT22;38032;53.326;6.472;2023-09-08T03:32:59;17.10;99.90
52016;DHT22;38032;53.326;6.472;2023-09-08T03:35:25;17.00;99.90
52016;DHT22;38032;53.326;6.472;2023-09-08T03:37:51;17.00;99.90
52016;DHT22;38032;53.326;6.472;2023-09-08T03:40:17;17.00;99.90
52016;DHT22;38032;53.326;6.472;2023-09-08T03:42:43;17.00;99.90
52016;DHT22;38032;53.326;6.472;2023-09-08T03:45:09;16.90;99.90
52016;DHT22;38032;53.326;6.472;2023-09-08T03:47:35;16.90;99.90
52016;DHT22;38032;53.326;6.472;2023-09-08T03:50:01;16.90;99.90
52016;DHT22;38032;53.326;6.472;2023-09-08T03:52:27;16.90;99.90
52016;DHT22;38032;53.326;6.472;2023-09-08T03:54:53;16.90;99.90
52016;DHT22;38032;53.326;6.472;2023-09-08T03:57:18;17.00;99.90
52016;DHT22;38032;53.326;6.472;2023-09-08T03:59:44;16.90;99.90
52016;DHT22;38032;53.326;6.472;2023-09-08T04:02:10;17.10;99.90
52016;DHT22;38032;53.326;6.472;2023-09-08T04:04:36;16.80;99.90
52016;DHT22;38032;53.326;6.472;2023-09-08T04:07:02;16.90;99.90
52016;DHT22;38032;53.326;6.472;2023-09-08T04:09:28;16.80;99.90
52016;DHT22;38032;53.326;6.472;2023-09-08T04:11:54;16.80;99.90
52016;DHT22;38032;53.326;6.472;2023-09-08T04:16:49;16.70;99.90
52016;DHT22;38032;53.326;6.472;2023-09-08T04:19:15;16.70;99.90
52016;DHT22;38032;53.326;6.472;2023-09-08T04:21:41;16.70;99.90
52016;DHT22;38032;53.326;6.472;2023-09-08T04:24:07;16.60;99.90
52016;DHT22;38032;53.326;6.472;2023-09-08T04:26:36;16.60;99.90
52016;DHT22;38032;53.326;6.472;2023-09-08T04:29:02;16.60;99.90
52016;DHT22;38032;53.326;6.472;2023-09-08T04:31:28;16.60;99.90
52016;DHT22;38032;53.326;6.472;2023-09-08T04:33:54;16.60;99.90
52016;DHT22;38032;53.326;6.472;2023-09-08T04:36:20;16.50;99.90
52016;DHT22;38032;53.326;6.472;2023-09-08T04:38:46;16.50;99.90
52016;DHT22;38032;53.326;6.472;2023-09-08T04:41:12;16.50;99.90
52016;DHT22;38032;53.326;6.472;2023-09-08T04:43:37;16.50;99.90
52016;DHT22;38032;53.326;6.472;2023-09-08T04:46:03;16.50;99.90
52016;DHT22;38032;53.326;6.472;2023-09-08T04:48:30;16.50;99.90
52016;DHT22;38032;53.326;6.472;2023-09-08T04:50:56;16.50;99.90
52016;DHT22;38032;53.326;6.472;2023-09-08T04:53:23;16.30;99.90
52016;DHT22;38032;53.326;6.472;2023-09-08T04:55:48;16.40;99.90
52016;DHT22;38032;53.326;6.472;2023-09-08T04:58:14;16.40;99.90
52016;DHT22;38032;53.326;6.472;2023-09-08T05:00:40;16.30;99.90
52016;DHT22;38032;53.326;6.472;2023-09-08T05:03:06;16.30;99.90
52016;DHT22;38032;53.326;6.472;2023-09-08T05:05:32;16.20;99.90
52016;DHT22;38032;53.326;6.472;2023-09-08T05:07:58;16.20;99.90
52016;DHT22;38032;53.326;6.472;2023-09-08T05:10:24;16.20;99.90
52016;DHT22;38032;53.326;6.472;2023-09-08T05:12:51;16.10;99.90
52016;DHT22;38032;53.326;6.472;2023-09-08T05:15:17;16.10;99.90
52016;DHT22;38032;53.326;6.472;2023-09-08T05:17:46;16.10;99.90
52016;DHT22;38032;53.326;6.472;2023-09-08T05:20:12;16.10;99.90
52016;DHT22;38032;53.326;6.472;2023-09-08T05:22:38;16.00;99.90
52016;DHT22;38032;53.326;6.472;2023-09-08T05:25:05;16.10;99.90
52016;DHT22;38032;53.326;6.472;2023-09-08T05:27:31;16.10;99.90
52016;DHT22;38032;53.326;6.472;2023-09-08T05:29:57;16.20;99.90
52016;DHT22;38032;53.326;6.472;2023-09-08T05:32:24;16.20;99.90
52016;DHT22;38032;53.326;6.472;2023-09-08T05:34:50;16.20;99.90
52016;DHT22;38032;53.326;6.472;2023-09-08T05:37:16;16.10;99.90
52016;DHT22;38032;53.326;6.472;2023-09-08T05:39:42;16.10;99.90
52016;DHT22;38032;53.326;6.472;2023-09-08T05:42:08;16.50;99.90
52016;DHT22;38032;53.326;6.472;2023-09-08T05:44:33;16.20;99.90
52016;DHT22;38032;53.326;6.472;2023-09-08T05:46:59;16.20;99.90
52016;DHT22;38032;53.326;6.472;2023-09-08T05:49:25;16.20;99.90
52016;DHT22;38032;53.326;6.472;2023-09-08T05:51:51;16.20;99.90
52016;DHT22;38032;53.326;6.472;2023-09-08T05:54:17;16.20;99.90
52016;DHT22;38032;53.326;6.472;2023-09-08T05:56:43;16.20;99.90
52016;DHT22;38032;53.326;6.472;2023-09-08T05:59:09;16.30;99.90
52016;DHT22;38032;53.326;6.472;2023-09-08T06:01:36;16.30;99.90
52016;DHT22;38032;53.326;6.472;2023-09-08T06:04:02;16.30;99.90
52016;DHT22;38032;53.326;6.472;2023-09-08T06:06:28;16.40;99.90
52016;DHT22;38032;53.326;6.472;2023-09-08T06:08:54;16.40;99.90
52016;DHT22;38032;53.326;6.472;2023-09-08T06:11:20;16.50;99.90
52016;DHT22;38032;53.326;6.472;2023-09-08T06:13:47;16.60;99.90
52016;DHT22;38032;53.326;6.472;2023-09-08T06:16:13;16.50;99.90
52016;DHT22;38032;53.326;6.472;2023-09-08T06:21:07;16.60;99.90
52016;DHT22;38032;53.326;6.472;2023-09-08T06:45:32;17.20;99.90
52016;DHT22;38032;53.326;6.472;2023-09-08T06:47:58;17.40;99.90
52016;DHT22;38032;53.326;6.472;2023-09-08T07:00:13;17.60;99.90
52016;DHT22;38032;53.326;6.472;2023-09-08T07:05:05;17.90;99.90
52016;DHT22;38032;53.326;6.472;2023-09-08T07:07:35;18.00;99.90
52016;DHT22;38032;53.326;6.472;2023-09-08T07:10:03;18.00;99.90
52016;DHT22;38032;53.326;6.472;2023-09-08T07:12:29;18.20;99.90
52016;DHT22;38032;53.326;6.472;2023-09-08T07:14:56;18.20;99.90
52016;DHT22;38032;53.326;6.472;2023-09-08T07:17:22;18.30;99.90
52016;DHT22;38032;53.326;6.472;2023-09-08T07:19:49;18.40;99.90
52016;DHT22;38032;53.326;6.472;2023-09-08T07:22:16;18.50;99.90
52016;DHT22;38032;53.326;6.472;2023-09-08T07:24:42;18.60;99.90
52016;DHT22;38032;53.326;6.472;2023-09-08T07:27:08;18.70;99.90
52016;DHT22;38032;53.326;6.472;2023-09-08T07:29:34;18.80;99.90
52016;DHT22;38032;53.326;6.472;2023-09-08T07:32:00;18.80;99.90
52016;DHT22;38032;53.326;6.472;2023-09-08T07:34:25;19.00;99.90
52016;DHT22;38032;53.326;6.472;2023-09-08T07:36:51;19.10;99.90
52016;DHT22;38032;53.326;6.472;2023-09-08T07:39:17;19.10;99.90
52016;DHT22;38032;53.326;6.472;2023-09-08T07:41:43;19.20;99.90
52016;DHT22;38032;53.326;6.472;2023-09-08T07:44:09;19.40;99.90
52016;DHT22;38032;53.326;6.472;2023-09-08T07:46:35;19.60;99.90
52016;DHT22;38032;53.326;6.472;2023-09-08T07:49:01;19.70;99.90
52016;DHT22;38032;53.326;6.472;2023-09-08T07:51:27;19.80;99.90
52016;DHT22;38032;53.326;6.472;2023-09-08T07:53:53;19.80;99.90
52016;DHT22;38032;53.326;6.472;2023-09-08T07:56:19;19.90;99.90
52016;DHT22;38032;53.326;6.472;2023-09-08T07:58:45;20.00;99.90
52016;DHT22;38032;53.326;6.472;2023-09-08T08:01:13;20.20;99.90
52016;DHT22;38032;53.326;6.472;2023-09-08T08:03:39;20.30;99.90
52016;DHT22;38032;53.326;6.472;2023-09-08T08:06:05;20.30;99.90
52016;DHT22;38032;53.326;6.472;2023-09-08T08:08:31;20.40;99.90
52016;DHT22;38032;53.326;6.472;2023-09-08T08:10:58;20.50;99.90
52016;DHT22;38032;53.326;6.472;2023-09-08T08:13:24;20.60;99.90
52016;DHT22;38032;53.326;6.472;2023-09-08T08:15:50;20.70;99.90
52016;DHT22;38032;53.326;6.472;2023-09-08T08:18:16;20.80;99.90
52016;DHT22;38032;53.326;6.472;2023-09-08T08:20:43;20.90;99.90
52016;DHT22;38032;53.326;6.472;2023-09-08T08:23:09;21.00;99.90
52016;DHT22;38032;53.326;6.472;2023-09-08T08:25:35;21.10;99.90
52016;DHT22;38032;53.326;6.472;2023-09-08T08:28:01;21.20;99.90
52016;DHT22;38032;53.326;6.472;2023-09-08T08:30:28;21.40;99.90
52016;DHT22;38032;53.326;6.472;2023-09-08T08:32:54;21.50;99.90
52016;DHT22;38032;53.326;6.472;2023-09-08T08:35:20;21.60;99.90
52016;DHT22;38032;53.326;6.472;2023-09-08T08:37:46;21.70;99.90
52016;DHT22;38032;53.326;6.472;2023-09-08T08:40:12;21.80;99.90
52016;DHT22;38032;53.326;6.472;2023-09-08T08:42:39;21.90;99.90
52016;DHT22;38032;53.326;6.472;2023-09-08T08:45:05;22.00;99.90
52016;DHT22;38032;53.326;6.472;2023-09-08T08:47:32;22.20;99.90
52016;DHT22;38032;53.326;6.472;2023-09-08T08:49:59;22.30;99.90
52016;DHT22;38032;53.326;6.472;2023-09-08T08:52:26;22.40;99.90
52016;DHT22;38032;53.326;6.472;2023-09-08T08:54:52;22.50;99.90
52016;DHT22;38032;53.326;6.472;2023-09-08T08:57:20;22.60;99.90
52016;DHT22;38032;53.326;6.472;2023-09-08T08:59:47;22.70;99.90
52016;DHT22;38032;53.326;6.472;2023-09-08T09:02:14;22.80;99.90
52016;DHT22;38032;53.326;6.472;2023-09-08T09:04:41;22.90;99.90
52016;DHT22;38032;53.326;6.472;2023-09-08T09:07:07;23.00;99.90
52016;DHT22;38032;53.326;6.472;2023-09-08T09:09:33;23.20;99.90
52016;DHT22;38032;53.326;6.472;2023-09-08T09:12:00;23.30;99.90
52016;DHT22;38032;53.326;6.472;2023-09-08T09:14:28;23.50;99.90
52016;DHT22;38032;53.326;6.472;2023-09-08T09:16:57;24.40;99.90
52016;DHT22;38032;53.326;6.472;2023-09-08T09:19:23;25.40;99.90
52016;DHT22;38032;53.326;6.472;2023-09-08T09:21:58;26.50;99.90
52016;DHT22;38032;53.326;6.472;2023-09-08T09:24:41;28.00;99.90
52016;DHT22;38032;53.326;6.472;2023-09-08T09:27:10;29.70;99.90
52016;DHT22;38032;53.326;6.472;2023-09-08T09:29:50;31.40;95.60
52016;DHT22;38032;53.326;6.472;2023-09-08T09:32:17;33.00;90.70
52016;DHT22;38032;53.326;6.472;2023-09-08T09:34:51;34.40;81.50
52016;DHT22;38032;53.326;6.472;2023-09-08T09:37:19;35.40;74.80
52016;DHT22;38032;53.326;6.472;2023-09-08T09:39:49;36.30;70.20
52016;DHT22;38032;53.326;6.472;2023-09-08T09:42:16;37.10;66.80
52016;DHT22;38032;53.326;6.472;2023-09-08T09:44:43;37.80;64.40
52016;DHT22;38032;53.326;6.472;2023-09-08T09:47:09;38.50;62.20
52016;DHT22;38032;53.326;6.472;2023-09-08T09:49:43;39.10;60.20
52016;DHT22;38032;53.326;6.472;2023-09-08T09:52:13;39.50;60.00
52016;DHT22;38032;53.326;6.472;2023-09-08T09:54:43;40.00;59.00
52016;DHT22;38032;53.326;6.472;2023-09-08T09:57:15;40.40;57.10
52016;DHT22;38032;53.326;6.472;2023-09-08T09:59:41;40.70;56.20
52016;DHT22;38032;53.326;6.472;2023-09-08T10:02:12;40.90;55.00
52016;DHT22;38032;53.326;6.472;2023-09-08T10:04:40;41.10;55.30
52016;DHT22;38032;53.326;6.472;2023-09-08T10:07:07;41.20;54.30
52016;DHT22;38032;53.326;6.472;2023-09-08T10:09:34;41.40;52.70
52016;DHT22;38032;53.326;6.472;2023-09-08T10:12:04;41.50;52.20
52016;DHT22;38032;53.326;6.472;2023-09-08T10:14:31;41.60;52.60
52016;DHT22;38032;53.326;6.472;2023-09-08T10:17:00;41.60;52.30
52016;DHT22;38032;53.326;6.472;2023-09-08T10:19:27;42.20;52.20
52016;DHT22;38032;53.326;6.472;2023-09-08T10:21:59;41.90;51.30
52016;DHT22;38032;53.326;6.472;2023-09-08T10:24:32;42.00;51.60
52016;DHT22;38032;53.326;6.472;2023-09-08T10:29:30;42.30;51.60
52016;DHT22;38032;53.326;6.472;2023-09-08T10:31:57;42.50;50.50
52016;DHT22;38032;53.326;6.472;2023-09-08T10:34:25;42.50;50.50
52016;DHT22;38032;53.326;6.472;2023-09-08T10:36:52;42.60;50.50
52016;DHT22;38032;53.326;6.472;2023-09-08T10:39:36;42.70;50.20
52016;DHT22;38032;53.326;6.472;2023-09-08T10:47:19;42.90;49.80
52016;DHT22;38032;53.326;6.472;2023-09-08T10:49:45;42.90;49.80
52016;DHT22;38032;53.326;6.472;2023-09-08T10:52:12;43.00;49.80
52016;DHT22;38032;53.326;6.472;2023-09-08T10:54:45;42.90;49.10
52016;DHT22;38032;53.326;6.472;2023-09-08T10:57:14;42.90;49.80
52016;DHT22;38032;53.326;6.472;2023-09-08T10:59:45;42.80;49.50
52016;DHT22;38032;53.326;6.472;2023-09-08T11:02:34;42.80;48.50
52016;DHT22;38032;53.326;6.472;2023-09-08T11:05:03;42.60;49.60
52016;DHT22;38032;53.326;6.472;2023-09-08T11:07:31;42.40;48.60
52016;DHT22;38032;53.326;6.472;2023-09-08T11:09:59;42.20;48.80
52016;DHT22;38032;53.326;6.472;2023-09-08T11:12:27;42.00;49.80
52016;DHT22;38032;53.326;6.472;2023-09-08T11:14:53;41.90;50.00
52016;DHT22;38032;53.326;6.472;2023-09-08T11:17:20;41.60;49.80
52016;DHT22;38032;53.326;6.472;2023-09-08T11:19:48;41.40;49.70
52016;DHT22;38032;53.326;6.472;2023-09-08T11:22:16;41.10;49.80
52016;DHT22;38032;53.326;6.472;2023-09-08T11:24:44;40.90;51.10
52016;DHT22;38032;53.326;6.472;2023-09-08T11:27:11;40.60;49.90
52016;DHT22;38032;53.326;6.472;2023-09-08T11:29:38;40.30;50.20
52016;DHT22;38032;53.326;6.472;2023-09-08T11:32:07;40.10;50.40
52016;DHT22;38032;53.326;6.472;2023-09-08T11:34:37;40.00;51.50
52016;DHT22;38032;53.326;6.472;2023-09-08T11:37:14;39.80;51.40
52016;DHT22;38032;53.326;6.472;2023-09-08T11:39:42;39.60;51.50
52016;DHT22;38032;53.326;6.472;2023-09-08T11:42:11;39.50;51.90
52016;DHT22;38032;53.326;6.472;2023-09-08T11:44:37;39.30;52.10
52016;DHT22;38032;53.326;6.472;2023-09-08T11:47:06;39.10;52.00
52016;DHT22;38032;53.326;6.472;2023-09-08T11:52:02;38.70;52.10
52016;DHT22;38032;53.326;6.472;2023-09-08T11:54:30;38.60;53.40
52016;DHT22;38032;53.326;6.472;2023-09-08T11:56:59;38.40;52.50
52016;DHT22;38032;53.326;6.472;2023-09-08T11:59:27;38.20;52.50
52016;DHT22;38032;53.326;6.472;2023-09-08T12:01:55;38.00;52.60
52016;DHT22;38032;53.326;6.472;2023-09-08T12:04:21;37.80;53.50
52016;DHT22;38032;53.326;6.472;2023-09-08T12:06:49;37.50;52.50
52016;DHT22;38032;53.326;6.472;2023-09-08T12:09:15;37.30;53.40
52016;DHT22;38032;53.326;6.472;2023-09-08T12:11:42;37.00;53.40
52016;DHT22;38032;53.326;6.472;2023-09-08T12:14:10;36.70;53.50
52016;DHT22;38032;53.326;6.472;2023-09-08T12:16:37;36.40;53.30
52016;DHT22;38032;53.326;6.472;2023-09-08T12:19:03;36.10;55.10
52016;DHT22;38032;53.326;6.472;2023-09-08T12:21:29;35.90;55.20
52016;DHT22;38032;53.326;6.472;2023-09-08T12:23:57;35.80;55.40
52016;DHT22;38032;53.326;6.472;2023-09-08T12:26:25;35.60;56.00
52016;DHT22;38032;53.326;6.472;2023-09-08T12:28:51;35.40;56.00
52016;DHT22;38032;53.326;6.472;2023-09-08T12:31:17;35.40;56.30
52016;DHT22;38032;53.326;6.472;2023-09-08T12:33:44;35.30;56.50
52016;DHT22;38032;53.326;6.472;2023-09-08T12:36:14;35.20;56.90
52016;DHT22;38032;53.326;6.472;2023-09-08T12:38:41;35.10;57.10
52016;DHT22;38032;53.326;6.472;2023-09-08T12:41:07;34.90;56.50
52016;DHT22;38032;53.326;6.472;2023-09-08T12:43:33;34.80;57.00
52016;DHT22;38032;53.326;6.472;2023-09-08T12:46:00;34.70;57.60
52016;DHT22;38032;53.326;6.472;2023-09-08T12:48:26;34.60;57.90
52016;DHT22;38032;53.326;6.472;2023-09-08T12:50:52;34.50;58.50
52016;DHT22;38032;53.326;6.472;2023-09-08T12:53:18;34.50;58.60
52016;DHT22;38032;53.326;6.472;2023-09-08T12:55:46;34.40;58.30
52016;DHT22;38032;53.326;6.472;2023-09-08T12:58:12;34.40;57.90
52016;DHT22;38032;53.326;6.472;2023-09-08T13:00:38;34.40;58.30
52016;DHT22;38032;53.326;6.472;2023-09-08T13:03:04;34.30;58.10
52016;DHT22;38032;53.326;6.472;2023-09-08T13:05:30;34.20;57.30
52016;DHT22;38032;53.326;6.472;2023-09-08T13:07:56;34.10;60.70
52016;DHT22;38032;53.326;6.472;2023-09-08T13:10:22;34.20;59.30
52016;DHT22;38032;53.326;6.472;2023-09-08T13:12:49;34.00;63.40
52016;DHT22;38032;53.326;6.472;2023-09-08T13:15:15;34.00;63.70
52016;DHT22;38032;53.326;6.472;2023-09-08T13:17:41;34.00;59.00
52016;DHT22;38032;53.326;6.472;2023-09-08T13:20:08;33.80;59.90
52016;DHT22;38032;53.326;6.472;2023-09-08T13:22:34;34.00;60.50
52016;DHT22;38032;53.326;6.472;2023-09-08T13:25:00;33.80;61.30
52016;DHT22;38032;53.326;6.472;2023-09-08T13:27:26;33.00;59.50
52016;DHT22;38032;53.326;6.472;2023-09-08T13:29:54;33.80;60.10
52016;DHT22;38032;53.326;6.472;2023-09-08T13:32:20;33.70;61.90
52016;DHT22;38032;53.326;6.472;2023-09-08T13:34:48;33.60;59.90
52016;DHT22;38032;53.326;6.472;2023-09-08T13:37:14;33.60;62.70
52016;DHT22;38032;53.326;6.472;2023-09-08T13:39:40;33.60;62.50
52016;DHT22;38032;53.326;6.472;2023-09-08T13:42:06;33.60;63.30
52016;DHT22;38032;53.326;6.472;2023-09-08T13:44:34;33.50;63.90
52016;DHT22;38032;53.326;6.472;2023-09-08T13:46:59;33.80;64.50
52016;DHT22;38032;53.326;6.472;2023-09-08T13:49:26;33.60;64.70
52016;DHT22;38032;53.326;6.472;2023-09-08T13:51:52;33.60;64.90
52016;DHT22;38032;53.326;6.472;2023-09-08T13:54:19;33.60;64.50
52016;DHT22;38032;53.326;6.472;2023-09-08T13:56:45;33.50;67.90
52016;DHT22;38032;53.326;6.472;2023-09-08T13:59:11;34.00;68.50
52016;DHT22;38032;53.326;6.472;2023-09-08T14:01:37;33.50;66.50
52016;DHT22;38032;53.326;6.472;2023-09-08T14:04:03;33.40;66.30
52016;DHT22;38032;53.326;6.472;2023-09-08T14:06:32;33.20;66.70
52016;DHT22;38032;53.326;6.472;2023-09-08T14:08:58;33.30;68.40
52016;DHT22;38032;53.326;6.472;2023-09-08T14:11:24;33.30;69.80
52016;DHT22;38032;53.326;6.472;2023-09-08T14:13:50;33.30;72.10
52016;DHT22;38032;53.326;6.472;2023-09-08T14:16:18;33.30;72.20
52016;DHT22;38032;53.326;6.472;2023-09-08T14:18:44;33.00;73.40
52016;DHT22;38032;53.326;6.472;2023-09-08T14:21:11;33.10;71.30
52016;DHT22;38032;53.326;6.472;2023-09-08T14:23:37;32.90;73.40
52016;DHT22;38032;53.326;6.472;2023-09-08T14:26:04;33.10;74.50
52016;DHT22;38032;53.326;6.472;2023-09-08T14:28:30;33.00;74.00
52016;DHT22;38032;53.326;6.472;2023-09-08T14:30:58;32.80;79.50
52016;DHT22;38032;53.326;6.472;2023-09-08T14:33:24;32.70;73.00
52016;DHT22;38032;53.326;6.472;2023-09-08T14:35:50;32.50;70.30
52016;DHT22;38032;53.326;6.472;2023-09-08T14:38:18;32.50;70.50
52016;DHT22;38032;53.326;6.472;2023-09-08T14:40:45;32.70;70.00
52016;DHT22;38032;53.326;6.472;2023-09-08T14:43:19;32.50;69.20
52016;DHT22;38032;53.326;6.472;2023-09-08T14:45:45;32.50;67.00
52016;DHT22;38032;53.326;6.472;2023-09-08T14:48:11;32.20;66.60
52016;DHT22;38032;53.326;6.472;2023-09-08T14:50:37;32.20;65.50
52016;DHT22;38032;53.326;6.472;2023-09-08T14:53:03;32.40;65.80
52016;DHT22;38032;53.326;6.472;2023-09-08T14:55:29;32.30;67.20
52016;DHT22;38032;53.326;6.472;2023-09-08T14:57:55;32.20;69.30
52016;DHT22;38032;53.326;6.472;2023-09-08T15:00:21;32.20;71.20
52016;DHT22;38032;53.326;6.472;2023-09-08T15:02:47;32.20;72.90
52016;DHT22;38032;53.326;6.472;2023-09-08T15:05:13;31.80;77.80
52016;DHT22;38032;53.326;6.472;2023-09-08T15:07:39;32.20;76.00
52016;DHT22;38032;53.326;6.472;2023-09-08T15:10:05;32.00;73.80
52016;DHT22;38032;53.326;6.472;2023-09-08T15:12:31;32.10;73.40
52016;DHT22;38032;53.326;6.472;2023-09-08T15:14:57;31.90;73.10
52016;DHT22;38032;53.326;6.472;2023-09-08T15:17:23;32.00;75.70
52016;DHT22;38032;53.326;6.472;2023-09-08T15:19:49;31.80;75.90
52016;DHT22;38032;53.326;6.472;2023-09-08T15:22:15;31.60;69.60
52016;DHT22;38032;53.326;6.472;2023-09-08T15:24:40;31.50;70.70
52016;DHT22;38032;53.326;6.472;2023-09-08T15:27:06;31.50;73.10
52016;DHT22;38032;53.326;6.472;2023-09-08T15:29:32;31.50;71.30
52016;DHT22;38032;53.326;6.472;2023-09-08T15:31:58;31.70;69.20
52016;DHT22;38032;53.326;6.472;2023-09-08T15:34:24;31.50;68.80
52016;DHT22;38032;53.326;6.472;2023-09-08T15:36:50;31.40;69.80
52016;DHT22;38032;53.326;6.472;2023-09-08T15:39:16;31.20;73.40
52016;DHT22;38032;53.326;6.472;2023-09-08T15:41:42;31.40;72.10
52016;DHT22;38032;53.326;6.472;2023-09-08T15:44:08;31.20;70.70
52016;DHT22;38032;53.326;6.472;2023-09-08T15:46:34;31.00;69.30
52016;DHT22;38032;53.326;6.472;2023-09-08T15:49:00;30.90;68.50
52016;DHT22;38032;53.326;6.472;2023-09-08T15:51:26;30.80;67.50
52016;DHT22;38032;53.326;6.472;2023-09-08T15:53:52;30.40;66.40
52016;DHT22;38032;53.326;6.472;2023-09-08T15:56:18;30.80;67.10
52016;DHT22;38032;53.326;6.472;2023-09-08T15:58:43;30.80;67.90
52016;DHT22;38032;53.326;6.472;2023-09-08T16:01:09;30.70;68.50
52016;DHT22;38032;53.326;6.472;2023-09-08T16:03:37;30.60;69.30
52016;DHT22;38032;53.326;6.472;2023-09-08T16:06:03;30.70;69.40
52016;DHT22;38032;53.326;6.472;2023-09-08T16:08:29;30.50;70.20
52016;DHT22;38032;53.326;6.472;2023-09-08T16:10:55;30.60;71.20
52016;DHT22;38032;53.326;6.472;2023-09-08T16:13:21;30.30;68.00
52016;DHT22;38032;53.326;6.472;2023-09-08T16:15:47;30.30;73.60
52016;DHT22;38032;53.326;6.472;2023-09-08T16:18:13;30.30;72.10
52016;DHT22;38032;53.326;6.472;2023-09-08T16:20:39;30.10;76.30
52016;DHT22;38032;53.326;6.472;2023-09-08T16:30:24;29.90;95.30
52016;DHT22;38032;53.326;6.472;2023-09-08T16:32:50;30.00;88.50
52016;DHT22;38032;53.326;6.472;2023-09-08T16:35:16;29.80;86.60
52016;DHT22;38032;53.326;6.472;2023-09-08T16:37:42;29.80;86.70
52016;DHT22;38032;53.326;6.472;2023-09-08T16:40:09;29.60;87.80
52016;DHT22;38032;53.326;6.472;2023-09-08T16:42:35;29.40;82.40
52016;DHT22;38032;53.326;6.472;2023-09-08T16:45:02;29.30;83.20
52016;DHT22;38032;53.326;6.472;2023-09-08T16:47:29;29.30;82.70